sensor_id;sensor_type;location;lat;lon;timestamp;pressure;altitude;pressure_sealevel;temperature;humidity
50384;BME280;36301;48.310;12.786;2023-12-29T00:00:12;96406.34;;;7.26;80.42
50384;BME280;36301;48.310;12.786;2023-12-29T00:02:39;96410.69;;;7.34;80.62
50384;BME280;36301;48.310;12.786;2023-12-29T00:05:06;96418.75;;;7.53;78.67
50384;BME280;36301;48.310;12.786;2023-12-29T00:07:33;96419.56;;;7.42;79.46
50384;BME280;36301;48.310;12.786;2023-12-29T00:10:00;96410.56;;;7.43;78.37
50384;BME280;36301;48.310;12.786;2023-12-29T00:12:26;96414.50;;;7.49;78.59
50384;BME280;36301;48.310;12.786;2023-12-29T00:14:53;96413.31;;;7.74;77.77
50384;BME280;36301;48.310;12.786;2023-12-29T00:17:20;96408.66;;;7.84;75.51
50384;BME280;36301;48.310;12.786;2023-12-29T00:19:47;96403.22;;;7.76;75.80
50384;BME280;36301;48.310;12.786;2023-12-29T00:22:13;96403.63;;;7.78;73.68
50384;BME280;36301;48.310;12.786;2023-12-29T00:24:40;96404.53;;;7.70;73.85
50384;BME280;36301;48.310;12.786;2023-12-29T00:27:06;96412.53;;;7.74;74.06
50384;BME280;36301;48.310;12.786;2023-12-29T00:29:33;96410.69;;;7.74;73.12
50384;BME280;36301;48.310;12.786;2023-12-29T00:32:01;96407.28;;;7.74;74.25
50384;BME280;36301;48.310;12.786;2023-12-29T00:34:29;96413.75;;;7.76;72.11
50384;BME280;36301;48.310;12.786;2023-12-29T00:36:56;96414.19;;;7.78;72.19
50384;BME280;36301;48.310;12.786;2023-12-29T00:39:23;96392.75;;;7.52;71.57
50384;BME280;36301;48.310;12.786;2023-12-29T00:41:56;96398.78;;;7.52;72.36
50384;BME280;36301;48.310;12.786;2023-12-29T00:44:23;96403.53;;;7.47;71.99
50384;BME280;36301;48.310;12.786;2023-12-29T00:46:50;96391.91;;;7.48;70.98
50384;BME280;36301;48.310;12.786;2023-12-29T00:49:16;96396.56;;;7.26;71.92
50384;BME280;36301;48.310;12.786;2023-12-29T00:51:43;96400.09;;;7.18;71.98
50384;BME280;36301;48.310;12.786;2023-12-29T00:54:10;96404.69;;;7.09;72.39
50384;BME280;36301;48.310;12.786;2023-12-29T00:56:37;96400.31;;;7.13;72.46
50384;BME280;36301;48.310;12.786;2023-12-29T00:59:03;96396.94;;;7.00;73.39
50384;BME280;36301;48.310;12.786;2023-12-29T01:01:34;96398.25;;;6.82;75.10
50384;BME280;36301;48.310;12.786;2023-12-29T01:04:02;96399.88;;;6.99;74.13
50384;BME280;36301;48.310;12.786;2023-12-29T01:06:29;96393.53;;;6.88;74.50
50384;BME280;36301;48.310;12.786;2023-12-29T01:08:55;96400.88;;;6.94;74.06
50384;BME280;36301;48.310;12.786;2023-12-29T01:11:22;96398.25;;;6.82;74.46
50384;BME280;36301;48.310;12.786;2023-12-29T01:13:49;96397.38;;;6.78;74.94
50384;BME280;36301;48.310;12.786;2023-12-29T01:16:15;96404.72;;;6.72;75.58
50384;BME280;36301;48.310;12.786;2023-12-29T01:18:42;96400.16;;;6.69;76.01
50384;BME280;36301;48.310;12.786;2023-12-29T01:21:09;96388.50;;;6.58;76.53
50384;BME280;36301;48.310;12.786;2023-12-29T01:23:35;96390.03;;;6.47;77.93
50384;BME280;36301;48.310;12.786;2023-12-29T01:26:02;96385.88;;;6.46;78.58
50384;BME280;36301;48.310;12.786;2023-12-29T01:28:29;96393.34;;;6.44;79.14
50384;BME280;36301;48.310;12.786;2023-12-29T01:30:55;96388.72;;;6.41;78.83
50384;BME280;36301;48.310;12.786;2023-12-29T01:33:22;96387.94;;;6.53;79.94
50384;BME280;36301;48.310;12.786;2023-12-29T01:35:49;96390.59;;;6.53;80.19
50384;BME280;36301;48.310;12.786;2023-12-29T01:38:15;96399.56;;;6.39;80.50
50384;BME280;36301;48.310;12.786;2023-12-29T01:40:45;96399.31;;;6.20;82.29
50384;BME280;36301;48.310;12.786;2023-12-29T01:43:12;96394.59;;;6.13;81.88
50384;BME280;36301;48.310;12.786;2023-12-29T01:45:39;96392.75;;;6.14;82.17
50384;BME280;36301;48.310;12.786;2023-12-29T01:48:22;96394.47;;;6.10;82.32
50384;BME280;36301;48.310;12.786;2023-12-29T01:50:50;96376.28;;;6.05;82.81
50384;BME280;36301;48.310;12.786;2023-12-29T01:53:17;96379.56;;;6.02;83.32
50384;BME280;36301;48.310;12.786;2023-12-29T01:55:47;96385.47;;;5.98;83.56
50384;BME280;36301;48.310;12.786;2023-12-29T01:58:15;96379.63;;;5.93;83.24
50384;BME280;36301;48.310;12.786;2023-12-29T02:00:42;96373.50;;;5.89;84.40
50384;BME280;36301;48.310;12.786;2023-12-29T02:03:09;96376.25;;;5.92;85.12
50384;BME280;36301;48.310;12.786;2023-12-29T02:05:36;96378.22;;;5.95;85.27
50384;BME280;36301;48.310;12.786;2023-12-29T02:08:04;96365.28;;;5.90;85.50
50384;BME280;36301;48.310;12.786;2023-12-29T02:10:33;96368.66;;;5.91;86.07
50384;BME280;36301;48.310;12.786;2023-12-29T02:12:59;96377.47;;;5.95;86.46
50384;BME280;36301;48.310;12.786;2023-12-29T02:15:26;96366.84;;;5.91;86.99
50384;BME280;36301;48.310;12.786;2023-12-29T02:18:05;96367.91;;;5.90;87.98
50384;BME280;36301;48.310;12.786;2023-12-29T02:20:33;96355.84;;;5.89;88.23
50384;BME280;36301;48.310;12.786;2023-12-29T02:23:00;96362.69;;;6.03;87.41
50384;BME280;36301;48.310;12.786;2023-12-29T02:25:27;96357.13;;;6.04;87.04
50384;BME280;36301;48.310;12.786;2023-12-29T02:28:26;96360.28;;;5.97;87.34
50384;BME280;36301;48.310;12.786;2023-12-29T02:31:09;96352.94;;;6.03;87.25
50384;BME280;36301;48.310;12.786;2023-12-29T02:33:41;96352.53;;;6.13;86.62
50384;BME280;36301;48.310;12.786;2023-12-29T02:36:10;96352.53;;;6.13;86.68
50384;BME280;36301;48.310;12.786;2023-12-29T02:38:39;96346.06;;;6.11;86.80
50384;BME280;36301;48.310;12.786;2023-12-29T02:41:06;96345.66;;;5.88;88.64
50384;BME280;36301;48.310;12.786;2023-12-29T02:43:33;96348.66;;;5.65;89.45
50384;BME280;36301;48.310;12.786;2023-12-29T02:46:00;96344.66;;;6.13;87.60
50384;BME280;36301;48.310;12.786;2023-12-29T02:48:26;96346.88;;;6.23;86.83
50384;BME280;36301;48.310;12.786;2023-12-29T02:50:53;96337.13;;;6.24;87.11
50384;BME280;36301;48.310;12.786;2023-12-29T02:53:20;96342.88;;;6.17;88.38
50384;BME280;36301;48.310;12.786;2023-12-29T02:55:46;96344.31;;;6.27;87.36
50384;BME280;36301;48.310;12.786;2023-12-29T02:58:13;96335.25;;;6.37;86.36
50384;BME280;36301;48.310;12.786;2023-12-29T03:00:39;96337.88;;;6.37;86.13
50384;BME280;36301;48.310;12.786;2023-12-29T03:03:06;96343.59;;;6.39;86.06
50384;BME280;36301;48.310;12.786;2023-12-29T03:05:33;96329.78;;;6.30;86.63
50384;BME280;36301;48.310;12.786;2023-12-29T03:07:59;96326.81;;;6.31;86.47
50384;BME280;36301;48.310;12.786;2023-12-29T03:10:27;96332.63;;;6.37;86.21
50384;BME280;36301;48.310;12.786;2023-12-29T03:12:53;96329.34;;;6.40;85.88
50384;BME280;36301;48.310;12.786;2023-12-29T03:15:20;96318.59;;;6.33;85.91
50384;BME280;36301;48.310;12.786;2023-12-29T03:17:46;96331.72;;;6.33;85.67
50384;BME280;36301;48.310;12.786;2023-12-29T03:20:13;96326.69;;;6.28;86.42
50384;BME280;36301;48.310;12.786;2023-12-29T03:22:39;96324.81;;;6.28;86.00
50384;BME280;36301;48.310;12.786;2023-12-29T03:25:06;96328.34;;;6.32;85.72
50384;BME280;36301;48.310;12.786;2023-12-29T03:27:33;96316.38;;;6.22;86.17
50384;BME280;36301;48.310;12.786;2023-12-29T03:30:00;96297.97;;;6.22;87.37
50384;BME280;36301;48.310;12.786;2023-12-29T03:32:27;96301.28;;;6.32;85.89
50384;BME280;36301;48.310;12.786;2023-12-29T03:34:53;96292.09;;;6.26;85.61
50384;BME280;36301;48.310;12.786;2023-12-29T03:37:20;96285.63;;;6.11;86.14
50384;BME280;36301;48.310;12.786;2023-12-29T03:39:47;96286.16;;;6.04;86.74
50384;BME280;36301;48.310;12.786;2023-12-29T03:42:13;96284.81;;;5.98;87.03
50384;BME280;36301;48.310;12.786;2023-12-29T03:44:40;96298.84;;;6.02;86.99
50384;BME280;36301;48.310;12.786;2023-12-29T03:47:06;96299.63;;;6.15;86.95
50384;BME280;36301;48.310;12.786;2023-12-29T03:49:33;96290.75;;;6.07;86.82
50384;BME280;36301;48.310;12.786;2023-12-29T03:52:00;96301.03;;;6.00;87.10
50384;BME280;36301;48.310;12.786;2023-12-29T03:54:27;96302.25;;;6.03;87.85
50384;BME280;36301;48.310;12.786;2023-12-29T03:56:54;96292.41;;;6.00;88.03
50384;BME280;36301;48.310;12.786;2023-12-29T03:59:20;96294.91;;;5.96;87.01
50384;BME280;36301;48.310;12.786;2023-12-29T04:01:47;96283.84;;;6.03;87.42
50384;BME280;36301;48.310;12.786;2023-12-29T04:04:13;96280.03;;;6.00;87.60
50384;BME280;36301;48.310;12.786;2023-12-29T04:06:40;96279.91;;;5.96;87.80
50384;BME280;36301;48.310;12.786;2023-12-29T04:09:07;96285.94;;;5.97;87.46
50384;BME280;36301;48.310;12.786;2023-12-29T04:11:34;96267.75;;;5.92;87.56
50384;BME280;36301;48.310;12.786;2023-12-29T04:14:01;96267.94;;;5.87;88.05
50384;BME280;36301;48.310;12.786;2023-12-29T04:16:27;96276.47;;;5.84;87.74
50384;BME280;36301;48.310;12.786;2023-12-29T04:18:54;96275.94;;;5.78;88.52
50384;BME280;36301;48.310;12.786;2023-12-29T04:21:21;96263.13;;;5.10;92.37
50384;BME280;36301;48.310;12.786;2023-12-29T04:23:47;96268.91;;;5.04;93.78
50384;BME280;36301;48.310;12.786;2023-12-29T04:26:14;96260.97;;;5.12;93.20
50384;BME280;36301;48.310;12.786;2023-12-29T04:28:42;96245.75;;;4.85;93.88
50384;BME280;36301;48.310;12.786;2023-12-29T04:31:08;96267.09;;;5.37;92.76
50384;BME280;36301;48.310;12.786;2023-12-29T04:33:35;96263.31;;;5.59;90.57
50384;BME280;36301;48.310;12.786;2023-12-29T04:36:02;96257.69;;;5.49;90.32
50384;BME280;36301;48.310;12.786;2023-12-29T04:38:29;96260.00;;;5.50;91.15
50384;BME280;36301;48.310;12.786;2023-12-29T04:40:55;96267.88;;;5.50;91.34
50384;BME280;36301;48.310;12.786;2023-12-29T04:43:22;96274.56;;;5.47;91.17
50384;BME280;36301;48.310;12.786;2023-12-29T04:45:48;96271.13;;;5.47;91.38
50384;BME280;36301;48.310;12.786;2023-12-29T04:48:15;96261.31;;;5.56;90.42
50384;BME280;36301;48.310;12.786;2023-12-29T04:50:41;96266.97;;;5.46;91.26
50384;BME280;36301;48.310;12.786;2023-12-29T04:53:08;96262.97;;;5.61;90.17
50384;BME280;36301;48.310;12.786;2023-12-29T04:55:35;96267.03;;;5.58;90.53
50384;BME280;36301;48.310;12.786;2023-12-29T04:58:01;96264.28;;;5.67;90.63
50384;BME280;36301;48.310;12.786;2023-12-29T05:00:28;96260.25;;;5.82;90.54
50384;BME280;36301;48.310;12.786;2023-12-29T05:02:55;96253.91;;;5.83;89.56
50384;BME280;36301;48.310;12.786;2023-12-29T05:05:21;96266.81;;;5.88;89.76
50384;BME280;36301;48.310;12.786;2023-12-29T05:07:48;96261.16;;;5.98;89.42
50384;BME280;36301;48.310;12.786;2023-12-29T05:10:14;96262.28;;;6.09;89.41
50384;BME280;36301;48.310;12.786;2023-12-29T05:12:41;96263.19;;;6.13;89.13
50384;BME280;36301;48.310;12.786;2023-12-29T05:15:08;96272.25;;;6.28;89.45
50384;BME280;36301;48.310;12.786;2023-12-29T05:17:34;96278.28;;;6.41;88.03
50384;BME280;36301;48.310;12.786;2023-12-29T05:20:01;96271.47;;;6.52;87.17
50384;BME280;36301;48.310;12.786;2023-12-29T05:22:28;96295.34;;;6.59;87.07
50384;BME280;36301;48.310;12.786;2023-12-29T05:24:54;96275.84;;;6.60;86.49
50384;BME280;36301;48.310;12.786;2023-12-29T05:27:24;96273.84;;;6.69;84.84
50384;BME280;36301;48.310;12.786;2023-12-29T05:29:50;96288.63;;;6.86;85.81
50384;BME280;36301;48.310;12.786;2023-12-29T05:32:17;96299.97;;;7.02;84.61
50384;BME280;36301;48.310;12.786;2023-12-29T05:34:44;96277.56;;;7.09;83.82
50384;BME280;36301;48.310;12.786;2023-12-29T05:37:10;96277.81;;;7.03;83.99
50384;BME280;36301;48.310;12.786;2023-12-29T05:39:37;96276.03;;;7.08;83.71
50384;BME280;36301;48.310;12.786;2023-12-29T05:42:03;96275.16;;;7.16;83.73
50384;BME280;36301;48.310;12.786;2023-12-29T05:44:30;96287.03;;;7.10;84.19
50384;BME280;36301;48.310;12.786;2023-12-29T05:46:56;96284.84;;;7.27;82.54
50384;BME280;36301;48.310;12.786;2023-12-29T05:49:26;96271.63;;;7.40;81.92
50384;BME280;36301;48.310;12.786;2023-12-29T05:51:53;96265.53;;;7.36;82.28
50384;BME280;36301;48.310;12.786;2023-12-29T05:54:19;96269.94;;;7.47;81.02
50384;BME280;36301;48.310;12.786;2023-12-29T05:56:46;96270.28;;;7.46;81.40
50384;BME280;36301;48.310;12.786;2023-12-29T05:59:12;96279.34;;;7.61;79.90
50384;BME280;36301;48.310;12.786;2023-12-29T06:01:39;96275.16;;;7.75;79.83
50384;BME280;36301;48.310;12.786;2023-12-29T06:04:05;96280.44;;;7.75;78.39
50384;BME280;36301;48.310;12.786;2023-12-29T06:06:32;96291.53;;;7.97;77.69
50384;BME280;36301;48.310;12.786;2023-12-29T06:08:59;96287.63;;;7.91;77.38
50384;BME280;36301;48.310;12.786;2023-12-29T06:11:25;96292.88;;;7.91;78.28
50384;BME280;36301;48.310;12.786;2023-12-29T06:13:52;96295.31;;;7.84;78.54
50384;BME280;36301;48.310;12.786;2023-12-29T06:16:19;96297.44;;;7.78;79.19
50384;BME280;36301;48.310;12.786;2023-12-29T06:18:47;96294.31;;;7.72;79.35
50384;BME280;36301;48.310;12.786;2023-12-29T06:21:14;96299.75;;;7.79;79.43
50384;BME280;36301;48.310;12.786;2023-12-29T06:23:40;96293.84;;;7.70;78.62
50384;BME280;36301;48.310;12.786;2023-12-29T06:26:16;96302.22;;;7.44;81.44
50384;BME280;36301;48.310;12.786;2023-12-29T06:28:44;96300.53;;;7.36;81.90
50384;BME280;36301;48.310;12.786;2023-12-29T06:31:11;96296.78;;;7.37;81.23
50384;BME280;36301;48.310;12.786;2023-12-29T06:33:44;96299.66;;;7.32;82.32
50384;BME280;36301;48.310;12.786;2023-12-29T06:36:11;96296.91;;;7.28;82.80
50384;BME280;36301;48.310;12.786;2023-12-29T06:38:38;96298.66;;;7.37;81.92
50384;BME280;36301;48.310;12.786;2023-12-29T06:41:05;96287.03;;;7.53;80.45
50384;BME280;36301;48.310;12.786;2023-12-29T06:43:31;96295.19;;;7.48;80.19
50384;BME280;36301;48.310;12.786;2023-12-29T06:45:58;96300.09;;;7.50;79.93
50384;BME280;36301;48.310;12.786;2023-12-29T06:48:24;96299.31;;;7.62;77.70
50384;BME280;36301;48.310;12.786;2023-12-29T06:50:51;96299.81;;;7.67;78.74
50384;BME280;36301;48.310;12.786;2023-12-29T06:53:18;96311.28;;;7.59;78.34
50384;BME280;36301;48.310;12.786;2023-12-29T06:55:44;96314.88;;;7.67;78.17
50384;BME280;36301;48.310;12.786;2023-12-29T06:58:11;96305.19;;;7.71;77.58
50384;BME280;36301;48.310;12.786;2023-12-29T07:00:37;96300.06;;;7.62;78.37
50384;BME280;36301;48.310;12.786;2023-12-29T07:03:06;96306.88;;;7.63;78.72
50384;BME280;36301;48.310;12.786;2023-12-29T07:05:33;96296.06;;;7.68;78.57
50384;BME280;36301;48.310;12.786;2023-12-29T07:07:59;96303.63;;;7.70;78.28
50384;BME280;36301;48.310;12.786;2023-12-29T07:10:26;96295.91;;;7.61;78.44
50384;BME280;36301;48.310;12.786;2023-12-29T07:12:53;96300.75;;;7.75;77.86
50384;BME280;36301;48.310;12.786;2023-12-29T07:15:19;96298.56;;;7.77;77.31
50384;BME280;36301;48.310;12.786;2023-12-29T07:17:46;96291.84;;;7.79;76.86
50384;BME280;36301;48.310;12.786;2023-12-29T07:20:13;96294.16;;;7.81;75.32
50384;BME280;36301;48.310;12.786;2023-12-29T07:22:39;96298.56;;;7.93;74.62
50384;BME280;36301;48.310;12.786;2023-12-29T07:25:06;96298.91;;;7.91;75.77
50384;BME280;36301;48.310;12.786;2023-12-29T07:27:33;96300.44;;;7.92;76.58
50384;BME280;36301;48.310;12.786;2023-12-29T07:29:59;96305.81;;;7.96;78.08
50384;BME280;36301;48.310;12.786;2023-12-29T07:32:26;96311.50;;;7.82;79.82
50384;BME280;36301;48.310;12.786;2023-12-29T07:34:52;96307.84;;;7.87;79.69
50384;BME280;36301;48.310;12.786;2023-12-29T07:37:19;96311.84;;;7.96;79.94
50384;BME280;36301;48.310;12.786;2023-12-29T07:39:46;96310.13;;;8.04;78.99
50384;BME280;36301;48.310;12.786;2023-12-29T07:42:14;96313.47;;;8.01;78.10
50384;BME280;36301;48.310;12.786;2023-12-29T07:44:43;96321.38;;;8.01;78.07
50384;BME280;36301;48.310;12.786;2023-12-29T07:47:09;96322.81;;;7.98;78.42
50384;BME280;36301;48.310;12.786;2023-12-29T07:49:38;96327.91;;;7.91;79.63
50384;BME280;36301;48.310;12.786;2023-12-29T07:52:04;96327.22;;;7.94;79.00
50384;BME280;36301;48.310;12.786;2023-12-29T07:54:31;96330.97;;;7.93;79.56
50384;BME280;36301;48.310;12.786;2023-12-29T07:56:58;96329.94;;;7.98;79.14
50384;BME280;36301;48.310;12.786;2023-12-29T07:59:24;96328.19;;;8.02;79.18
50384;BME280;36301;48.310;12.786;2023-12-29T08:01:51;96331.75;;;8.10;78.40
50384;BME280;36301;48.310;12.786;2023-12-29T08:04:18;96334.22;;;8.02;79.32
50384;BME280;36301;48.310;12.786;2023-12-29T08:06:44;96331.56;;;8.02;79.73
50384;BME280;36301;48.310;12.786;2023-12-29T08:09:11;96337.63;;;8.03;79.53
50384;BME280;36301;48.310;12.786;2023-12-29T08:11:38;96331.06;;;8.13;79.91
50384;BME280;36301;48.310;12.786;2023-12-29T08:14:04;96330.13;;;8.05;80.67
50384;BME280;36301;48.310;12.786;2023-12-29T08:16:31;96332.19;;;8.12;79.51
50384;BME280;36301;48.310;12.786;2023-12-29T08:18:58;96335.06;;;8.22;78.88
50384;BME280;36301;48.310;12.786;2023-12-29T08:21:25;96335.84;;;8.23;78.26
50384;BME280;36301;48.310;12.786;2023-12-29T08:23:51;96341.53;;;8.25;78.60
50384;BME280;36301;48.310;12.786;2023-12-29T08:26:18;96336.50;;;8.36;76.48
50384;BME280;36301;48.310;12.786;2023-12-29T08:28:44;96344.00;;;8.33;76.88
50384;BME280;36301;48.310;12.786;2023-12-29T08:31:11;96308.50;;;8.15;76.38
50384;BME280;36301;48.310;12.786;2023-12-29T08:33:38;96344.63;;;8.43;75.61
50384;BME280;36301;48.310;12.786;2023-12-29T08:36:05;96334.97;;;8.35;75.60
50384;BME280;36301;48.310;12.786;2023-12-29T08:38:33;96347.69;;;8.45;76.38
50384;BME280;36301;48.310;12.786;2023-12-29T08:40:59;96355.59;;;8.45;75.48
50384;BME280;36301;48.310;12.786;2023-12-29T08:43:26;96346.75;;;8.53;74.54
50384;BME280;36301;48.310;12.786;2023-12-29T08:45:53;96350.91;;;8.54;74.76
50384;BME280;36301;48.310;12.786;2023-12-29T08:48:20;96342.81;;;8.63;74.61
50384;BME280;36301;48.310;12.786;2023-12-29T08:50:48;96347.59;;;8.57;75.24
50384;BME280;36301;48.310;12.786;2023-12-29T08:53:14;96345.97;;;8.68;73.29
50384;BME280;36301;48.310;12.786;2023-12-29T08:55:42;96338.72;;;8.65;72.67
50384;BME280;36301;48.310;12.786;2023-12-29T08:58:08;96349.00;;;8.70;71.96
50384;BME280;36301;48.310;12.786;2023-12-29T09:00:35;96354.88;;;8.79;71.99
50384;BME280;36301;48.310;12.786;2023-12-29T09:03:02;96363.50;;;8.61;73.59
50384;BME280;36301;48.310;12.786;2023-12-29T09:05:29;96375.47;;;8.90;72.80
50384;BME280;36301;48.310;12.786;2023-12-29T09:07:55;96361.09;;;8.71;74.71
50384;BME280;36301;48.310;12.786;2023-12-29T09:10:22;96367.75;;;8.65;74.68
50384;BME280;36301;48.310;12.786;2023-12-29T09:12:49;96369.09;;;8.75;74.17
50384;BME280;36301;48.310;12.786;2023-12-29T09:15:16;96371.41;;;8.61;74.40
50384;BME280;36301;48.310;12.786;2023-12-29T09:17:43;96372.78;;;8.70;74.59
50384;BME280;36301;48.310;12.786;2023-12-29T09:20:10;96369.38;;;8.70;73.44
50384;BME280;36301;48.310;12.786;2023-12-29T09:22:37;96373.19;;;8.88;72.20
50384;BME280;36301;48.310;12.786;2023-12-29T09:25:04;96370.19;;;8.90;72.01
50384;BME280;36301;48.310;12.786;2023-12-29T09:27:31;96366.44;;;8.91;70.92
50384;BME280;36301;48.310;12.786;2023-12-29T09:29:58;96366.25;;;8.99;71.85
50384;BME280;36301;48.310;12.786;2023-12-29T09:32:24;96354.16;;;8.98;71.24
50384;BME280;36301;48.310;12.786;2023-12-29T09:34:51;96358.75;;;9.01;71.28
50384;BME280;36301;48.310;12.786;2023-12-29T09:37:18;96356.53;;;9.03;70.53
50384;BME280;36301;48.310;12.786;2023-12-29T09:39:44;96360.03;;;9.07;69.30
50384;BME280;36301;48.310;12.786;2023-12-29T09:42:19;96354.97;;;9.18;68.09
50384;BME280;36301;48.310;12.786;2023-12-29T09:44:50;96343.84;;;9.28;68.17
50384;BME280;36301;48.310;12.786;2023-12-29T09:47:22;96339.50;;;9.20;66.93
50384;BME280;36301;48.310;12.786;2023-12-29T09:49:52;96342.28;;;9.27;67.14
50384;BME280;36301;48.310;12.786;2023-12-29T09:52:21;96337.78;;;9.28;67.44
50384;BME280;36301;48.310;12.786;2023-12-29T09:54:51;96328.13;;;9.55;67.02
50384;BME280;36301;48.310;12.786;2023-12-29T09:57:18;96339.72;;;9.70;65.65
50384;BME280;36301;48.310;12.786;2023-12-29T09:59:48;96339.50;;;9.78;64.17
50384;BME280;36301;48.310;12.786;2023-12-29T10:02:19;96333.47;;;9.58;65.30
50384;BME280;36301;48.310;12.786;2023-12-29T10:04:46;96342.91;;;9.79;66.24
50384;BME280;36301;48.310;12.786;2023-12-29T10:07:23;96341.03;;;9.79;66.19
50384;BME280;36301;48.310;12.786;2023-12-29T10:09:58;96336.03;;;9.74;65.66
50384;BME280;36301;48.310;12.786;2023-12-29T10:12:28;96334.97;;;9.79;65.26
50384;BME280;36301;48.310;12.786;2023-12-29T10:20:23;96323.41;;;10.10;65.30
50384;BME280;36301;48.310;12.786;2023-12-29T10:22:55;96321.69;;;9.98;66.92
50384;BME280;36301;48.310;12.786;2023-12-29T10:25:25;96320.63;;;10.03;67.31
50384;BME280;36301;48.310;12.786;2023-12-29T10:27:51;96317.59;;;10.01;68.09
50384;BME280;36301;48.310;12.786;2023-12-29T10:30:19;96313.53;;;10.07;68.24
50384;BME280;36301;48.310;12.786;2023-12-29T10:32:56;96308.00;;;10.16;67.77
50384;BME280;36301;48.310;12.786;2023-12-29T10:35:26;96306.78;;;10.32;68.03
50384;BME280;36301;48.310;12.786;2023-12-29T10:37:54;96307.69;;;10.44;67.66
50384;BME280;36301;48.310;12.786;2023-12-29T10:40:21;96309.66;;;10.47;67.62
50384;BME280;36301;48.310;12.786;2023-12-29T10:42:52;96302.25;;;10.33;67.84
50384;BME280;36301;48.310;12.786;2023-12-29T10:45:20;96299.28;;;10.34;67.64
50384;BME280;36301;48.310;12.786;2023-12-29T10:47:47;96297.25;;;10.51;67.62
50384;BME280;36301;48.310;12.786;2023-12-29T10:50:14;96297.19;;;10.47;68.55
50384;BME280;36301;48.310;12.786;2023-12-29T10:52:40;96289.75;;;10.30;69.49
50384;BME280;36301;48.310;12.786;2023-12-29T10:55:10;96281.25;;;10.21;69.78
50384;BME280;36301;48.310;12.786;2023-12-29T10:57:38;96275.50;;;10.15;70.92
50384;BME280;36301;48.310;12.786;2023-12-29T11:00:06;96284.59;;;10.18;71.08
50384;BME280;36301;48.310;12.786;2023-12-29T11:02:35;96268.50;;;10.26;70.73
50384;BME280;36301;48.310;12.786;2023-12-29T11:05:03;96273.47;;;10.54;70.09
50384;BME280;36301;48.310;12.786;2023-12-29T11:07:33;96271.97;;;10.57;71.30
50384;BME280;36301;48.310;12.786;2023-12-29T11:10:05;96264.84;;;10.61;70.42
50384;BME280;36301;48.310;12.786;2023-12-29T11:12:34;96270.25;;;10.68;71.09
50384;BME280;36301;48.310;12.786;2023-12-29T11:15:03;96265.44;;;10.77;70.70
50384;BME280;36301;48.310;12.786;2023-12-29T11:17:31;96253.84;;;10.89;70.57
50384;BME280;36301;48.310;12.786;2023-12-29T11:20:01;96257.94;;;10.83;70.95
50384;BME280;36301;48.310;12.786;2023-12-29T11:22:29;96253.97;;;10.96;71.37
50384;BME280;36301;48.310;12.786;2023-12-29T11:24:57;96251.06;;;10.78;71.05
50384;BME280;36301;48.310;12.786;2023-12-29T11:27:30;96256.28;;;10.71;72.90
50384;BME280;36301;48.310;12.786;2023-12-29T11:30:01;96251.81;;;11.09;70.81
50384;BME280;36301;48.310;12.786;2023-12-29T11:32:51;96249.09;;;11.02;71.27
50384;BME280;36301;48.310;12.786;2023-12-29T11:35:27;96248.78;;;11.07;70.80
50384;BME280;36301;48.310;12.786;2023-12-29T11:41:08;96229.56;;;10.83;72.46
50384;BME280;36301;48.310;12.786;2023-12-29T11:43:36;96228.22;;;10.97;71.67
50384;BME280;36301;48.310;12.786;2023-12-29T11:46:03;96220.41;;;11.07;71.62
50384;BME280;36301;48.310;12.786;2023-12-29T11:48:58;96214.81;;;11.16;71.11
50384;BME280;36301;48.310;12.786;2023-12-29T11:51:35;96222.25;;;11.03;71.69
50384;BME280;36301;48.310;12.786;2023-12-29T11:54:03;96213.31;;;11.18;71.91
50384;BME280;36301;48.310;12.786;2023-12-29T11:56:36;96212.44;;;11.41;70.23
50384;BME280;36301;48.310;12.786;2023-12-29T11:59:15;96211.63;;;11.37;71.29
50384;BME280;36301;48.310;12.786;2023-12-29T12:01:43;96202.69;;;11.52;71.27
50384;BME280;36301;48.310;12.786;2023-12-29T12:04:43;96202.13;;;11.32;71.52
50384;BME280;36301;48.310;12.786;2023-12-29T12:09:50;96200.66;;;11.38;71.49
50384;BME280;36301;48.310;12.786;2023-12-29T12:15:33;96199.13;;;11.37;72.00
50384;BME280;36301;48.310;12.786;2023-12-29T12:18:04;96186.97;;;11.33;72.08
50384;BME280;36301;48.310;12.786;2023-12-29T12:20:33;96191.97;;;11.41;71.70
50384;BME280;36301;48.310;12.786;2023-12-29T12:23:03;96194.63;;;11.41;72.68
50384;BME280;36301;48.310;12.786;2023-12-29T12:25:31;96192.31;;;11.36;72.56
50384;BME280;36301;48.310;12.786;2023-12-29T12:28:07;96189.03;;;11.13;74.59
50384;BME280;36301;48.310;12.786;2023-12-29T12:30:34;96196.94;;;11.09;74.41
50384;BME280;36301;48.310;12.786;2023-12-29T12:33:02;96186.44;;;11.16;75.01
50384;BME280;36301;48.310;12.786;2023-12-29T12:35:31;96183.94;;;11.31;73.62
50384;BME280;36301;48.310;12.786;2023-12-29T12:40:35;96193.78;;;11.34;74.83
50384;BME280;36301;48.310;12.786;2023-12-29T12:43:02;96186.13;;;11.25;75.25
50384;BME280;36301;48.310;12.786;2023-12-29T12:45:34;96190.00;;;11.35;75.06
50384;BME280;36301;48.310;12.786;2023-12-29T12:48:10;96185.50;;;11.39;75.11
50384;BME280;36301;48.310;12.786;2023-12-29T12:50:43;96181.53;;;11.18;75.80
50384;BME280;36301;48.310;12.786;2023-12-29T12:53:12;96187.19;;;11.58;74.28
50384;BME280;36301;48.310;12.786;2023-12-29T12:55:41;96185.09;;;11.33;76.09
50384;BME280;36301;48.310;12.786;2023-12-29T12:58:08;96177.47;;;11.28;77.10
50384;BME280;36301;48.310;12.786;2023-12-29T13:00:35;96182.72;;;11.25;77.01
50384;BME280;36301;48.310;12.786;2023-12-29T13:03:02;96164.91;;;11.22;76.80
50384;BME280;36301;48.310;12.786;2023-12-29T13:05:29;96174.91;;;11.35;76.61
50384;BME280;36301;48.310;12.786;2023-12-29T13:07:56;96180.19;;;11.35;76.74
50384;BME280;36301;48.310;12.786;2023-12-29T13:10:23;96183.59;;;11.36;77.46
50384;BME280;36301;48.310;12.786;2023-12-29T13:12:53;96187.81;;;11.44;77.07
50384;BME280;36301;48.310;12.786;2023-12-29T13:15:23;96179.38;;;11.31;78.02
50384;BME280;36301;48.310;12.786;2023-12-29T13:17:53;96181.28;;;11.34;78.08